Time;durP1;ratioP1;P1;durP2;ratioP2;P2;SDS_P1;SDS_P2;PMS_P1;PMS_P2;Temp;Humidity;BMP_temperature;BMP_pressure;BME280_temperature;BME280_humidity;BME280_pressure;Samples;Min_cycle;Max_cycle;Signal;HPM_P1;HPM_P2
2022/07/16 00:01:49;;;;;;;;;1.00;1.00;;;;;19.56;54.50;102081.50;4991561;28;9641;-66
2022/07/16 00:04:16;;;;;;;;;1.00;1.00;;;;;19.58;54.60;102076.66;4978353;28;9646;-65
2022/07/16 00:06:43;;;;;;;;;1.50;1.50;;;;;19.54;54.45;102079.00;4983659;28;8842;-65
2022/07/16 00:09:11;;;;;;;;;2.00;2.00;;;;;19.50;54.30;102073.13;4991483;28;8844;-66
2022/07/16 00:11:38;;;;;;;;;0.75;0.75;;;;;19.46;54.45;102073.81;4994148;28;8860;-66
2022/07/16 00:14:04;;;;;;;;;1.00;1.00;;;;;19.49;54.45;102074.22;4991359;28;8844;-66
2022/07/16 00:16:31;;;;;;;;;1.00;1.00;;;;;19.50;54.48;102075.03;4991204;28;8855;-68
2022/07/16 00:19:16;;;;;;;;;1.25;1.00;;;;;19.47;54.73;102070.84;4991537;28;8844;-66
2022/07/16 00:21:43;;;;;;;;;1.75;1.75;;;;;19.48;54.71;102067.06;4972192;28;8859;-67
2022/07/16 00:24:11;;;;;;;;;0.25;0.25;;;;;19.52;54.75;102067.44;4980896;28;8999;-65
2022/07/16 00:26:37;;;;;;;;;2.00;2.00;;;;;19.49;54.54;102060.56;4990680;28;8926;-66
2022/07/16 00:29:04;;;;;;;;;2.75;2.00;;;;;19.51;54.78;102065.78;4991099;28;8833;-67
2022/07/16 00:31:31;;;;;;;;;1.75;1.75;;;;;19.51;54.75;102066.63;4991306;28;8820;-66
2022/07/16 00:33:57;;;;;;;;;1.00;1.00;;;;;19.53;54.89;102063.69;4991266;28;8961;-65
2022/07/16 00:36:24;;;;;;;;;1.00;1.00;;;;;19.52;54.92;102067.44;4991395;28;8809;-65
2022/07/16 00:38:50;;;;;;;;;0.50;0.50;;;;;19.54;55.00;102067.25;4973268;28;8828;-66
2022/07/16 00:41:17;;;;;;;;;1.75;1.75;;;;;19.55;55.15;102067.00;4990623;28;8890;-66
2022/07/16 00:43:48;;;;;;;;;1.00;1.00;;;;;19.55;55.13;102068.91;4982511;28;8841;-66
2022/07/16 00:46:15;;;;;;;;;1.00;1.00;;;;;19.52;55.34;102068.28;4991119;28;8914;-65
2022/07/16 00:48:43;;;;;;;;;2.00;2.00;;;;;19.51;55.36;102063.06;4990231;28;8926;-66
2022/07/16 00:51:11;;;;;;;;;1.25;1.25;;;;;19.51;55.63;102074.81;4988120;28;8832;-66
2022/07/16 00:53:38;;;;;;;;;1.00;1.00;;;;;19.50;55.83;102077.78;4991244;28;8832;-66
2022/07/16 00:56:09;;;;;;;;;1.00;0.25;;;;;19.48;56.07;102079.88;4990704;28;8845;-66
2022/07/16 00:58:38;;;;;;;;;1.00;1.00;;;;;19.50;56.08;102075.03;4990891;28;8841;-66
2022/07/16 01:01:05;;;;;;;;;1.00;1.00;;;;;19.49;56.29;102076.94;4993169;28;9858;-66
2022/07/16 01:03:33;;;;;;;;;1.00;1.00;;;;;19.51;56.48;102072.06;4990474;28;8825;-66
2022/07/16 01:06:01;;;;;;;;;3.75;3.50;;;;;19.55;56.30;102072.47;4987931;28;8832;-66
2022/07/16 01:08:28;;;;;;;;;1.00;1.00;;;;;19.54;56.64;102068.06;4990251;28;8817;-67
2022/07/16 01:10:55;;;;;;;;;1.00;1.00;;;;;19.55;56.77;102075.19;4990277;28;8844;-67
2022/07/16 01:13:22;;;;;;;;;1.00;1.00;;;;;19.54;56.83;102070.81;4990826;28;8855;-66
2022/07/16 01:15:48;;;;;;;;;3.00;2.00;;;;;19.54;56.93;102069.97;4990540;28;8855;-65
2022/07/16 01:18:15;;;;;;;;;1.00;1.00;;;;;19.50;57.28;102069.59;4990571;28;8869;-67
2022/07/16 01:20:41;;;;;;;;;2.00;2.00;;;;;19.46;57.85;102068.34;4989698;28;8860;-68
2022/07/16 01:23:08;;;;;;;;;3.00;2.50;;;;;19.46;57.93;102073.81;4990347;28;9694;-67
2022/07/16 01:25:35;;;;;;;;;2.00;2.00;;;;;19.43;58.15;102069.63;4990034;28;8837;-67
2022/07/16 01:28:01;;;;;;;;;3.00;3.00;;;;;19.41;58.46;102070.94;5001854;28;8830;-65
2022/07/16 01:30:27;;;;;;;;;2.00;2.00;;;;;19.41;58.63;102074.50;4997412;28;8844;-67
2022/07/16 01:32:54;;;;;;;;;2.75;2.75;;;;;19.41;58.81;102082.69;4990309;28;8955;-68
2022/07/16 01:35:20;;;;;;;;;2.75;2.75;;;;;19.35;59.15;102080.81;4990501;28;8911;-66
2022/07/16 01:37:47;;;;;;;;;4.00;4.00;;;;;19.31;59.45;102076.88;4990256;28;8829;-67
2022/07/16 01:40:13;;;;;;;;;3.50;2.00;;;;;19.24;59.83;102076.06;4990244;28;8877;-66
2022/07/16 01:42:43;;;;;;;;;2.75;2.75;;;;;19.14;60.29;102078.47;4973493;28;8832;-67
2022/07/16 01:45:09;;;;;;;;;2.25;2.00;;;;;19.08;60.68;102084.81;4990697;28;8860;-66
2022/07/16 01:47:36;;;;;;;;;2.00;2.00;;;;;19.09;60.79;102079.16;4989428;28;8847;-67
2022/07/16 01:50:03;;;;;;;;;1.75;1.75;;;;;19.08;61.15;102082.06;4976346;28;8999;-67
2022/07/16 01:52:30;;;;;;;;;0.25;0.25;;;;;19.03;61.11;102090.94;4992738;28;8828;-67
2022/07/16 01:54:56;;;;;;;;;1.25;1.25;;;;;19.00;61.55;102092.22;4993620;28;8841;-67
2022/07/16 01:57:23;;;;;;;;;1.00;1.00;;;;;18.93;61.87;102090.59;4993516;28;8995;-67
2022/07/16 01:59:49;;;;;;;;;1.00;1.00;;;;;18.86;62.15;102092.50;4993088;28;9540;-67
2022/07/16 02:02:16;;;;;;;;;1.00;1.00;;;;;18.78;62.25;102091.72;4992380;28;8821;-67
2022/07/16 02:04:42;;;;;;;;;1.00;1.00;;;;;18.78;62.35;102096.34;4993414;28;8924;-67
2022/07/16 02:07:09;;;;;;;;;2.75;1.00;;;;;18.78;62.73;102097.16;4993148;28;8817;-66
2022/07/16 02:09:36;;;;;;;;;1.00;1.00;;;;;18.77;62.47;102100.97;4993036;28;8921;-68
2022/07/16 02:12:03;;;;;;;;;1.75;1.25;;;;;18.78;62.70;102096.34;4993825;28;8868;-67
2022/07/16 02:14:30;;;;;;;;;1.25;1.25;;;;;18.78;62.50;102107.25;4993278;28;8824;-66
2022/07/16 02:16:56;;;;;;;;;2.00;1.25;;;;;18.74;62.99;102100.56;4993068;28;9578;-67
2022/07/16 02:19:23;;;;;;;;;1.50;1.50;;;;;18.73;63.11;102098.88;4993211;28;9635;-67
2022/07/16 02:21:49;;;;;;;;;1.00;1.00;;;;;18.76;63.25;102109.38;4994491;28;8866;-67
2022/07/16 02:24:16;;;;;;;;;1.00;1.00;;;;;18.77;63.08;102102.84;4994004;28;8837;-66
2022/07/16 02:26:42;;;;;;;;;2.00;2.00;;;;;18.75;63.27;102099.50;4994285;28;8845;-66
2022/07/16 02:29:10;;;;;;;;;1.50;1.50;;;;;18.74;63.52;102104.09;4994118;28;9779;-67
2022/07/16 02:31:39;;;;;;;;;2.00;0.00;;;;;18.77;63.50;102100.97;4994363;28;8833;-67
2022/07/16 02:34:06;;;;;;;;;1.00;0.75;;;;;18.80;63.54;102104.28;4984546;28;9697;-67
2022/07/16 02:36:33;;;;;;;;;0.25;0.25;;;;;18.78;63.28;102099.06;4956700;28;8914;-65
2022/07/16 02:38:59;;;;;;;;;1.75;1.75;;;;;18.75;63.51;102104.94;4985401;28;8828;-66
2022/07/16 02:41:26;;;;;;;;;1.00;1.00;;;;;18.73;63.68;102110.63;4993045;28;8840;-68
2022/07/16 02:43:52;;;;;;;;;1.25;1.25;;;;;18.76;63.72;102109.38;4993289;28;8922;-66
2022/07/16 02:46:18;;;;;;;;;1.50;1.50;;;;;18.73;63.77;102112.53;4993260;28;8840;-65
2022/07/16 02:48:45;;;;;;;;;1.25;1.00;;;;;18.69;64.19;102113.97;4981624;28;9682;-66
2022/07/16 02:51:12;;;;;;;;;2.00;2.00;;;;;18.70;64.20;102118.41;4992961;28;9569;-66
2022/07/16 02:53:39;;;;;;;;;2.00;2.00;;;;;18.67;64.34;102125.09;4973585;28;8831;-66
2022/07/16 02:56:06;;;;;;;;;3.00;2.00;;;;;18.61;64.75;102128.69;4973234;28;9029;-65
2022/07/16 02:58:33;;;;;;;;;2.00;2.00;;;;;18.60;64.69;102128.94;4992160;28;8852;-65
2022/07/16 03:00:59;;;;;;;;;3.50;2.00;;;;;18.56;64.77;102141.31;4992060;28;9393;-66
2022/07/16 03:03:26;;;;;;;;;2.00;2.00;;;;;18.57;64.66;102141.09;4989101;28;8860;-65
2022/07/16 03:05:52;;;;;;;;;2.00;2.00;;;;;18.52;64.82;102139.00;4992243;28;8836;-66
2022/07/16 03:08:19;;;;;;;;;1.25;1.25;;;;;18.47;64.85;102144.28;4993122;28;8828;-65
2022/07/16 03:10:45;;;;;;;;;1.50;1.50;;;;;18.40;64.44;102150.81;4992559;28;8888;-67
2022/07/16 03:13:12;;;;;;;;;2.00;1.75;;;;;18.33;64.11;102149.97;4992578;28;8947;-67
2022/07/16 03:15:38;;;;;;;;;0.75;0.75;;;;;18.26;64.04;102150.81;4992525;28;8849;-67
2022/07/16 03:18:05;;;;;;;;;0.00;0.00;;;;;18.25;64.08;102154.59;4991869;28;9582;-67
2022/07/16 03:20:31;;;;;;;;;1.25;1.00;;;;;18.15;63.42;102153.34;4992032;28;8835;-67
2022/07/16 03:22:58;;;;;;;;;0.50;0.00;;;;;18.11;64.22;102158.44;4991747;28;8840;-67
2022/07/16 03:25:24;;;;;;;;;0.00;0.00;;;;;18.11;63.74;102168.47;4992205;28;8872;-65
2022/07/16 03:27:51;;;;;;;;;0.00;0.00;;;;;18.14;63.60;102166.16;4990093;28;8824;-67
2022/07/16 03:30:17;;;;;;;;;0.00;0.00;;;;;18.22;63.22;102167.81;4991173;28;9551;-66
2022/07/16 03:32:44;;;;;;;;;0.75;0.00;;;;;18.21;63.32;102175.16;4992323;28;8828;-65
2022/07/16 03:35:12;;;;;;;;;0.75;0.75;;;;;18.16;63.48;102183.16;4991193;28;8943;-66
2022/07/16 03:38:57;;;;;;;;;0.00;0.00;;;;;18.16;63.53;102177.69;4991866;28;8855;-65
2022/07/16 03:40:26;;;;;;;;;1.00;0.75;;;;;18.19;63.24;102182.72;4991631;28;8836;-65
2022/07/16 03:42:52;;;;;;;;;0.75;0.75;;;;;18.20;63.31;102181.66;4992287;28;8836;-67
2022/07/16 03:45:19;;;;;;;;;0.00;0.00;;;;;18.22;63.49;102176.81;4991354;28;8844;-67
2022/07/16 03:47:46;;;;;;;;;1.00;0.50;;;;;18.28;63.15;102188.78;4996791;28;8838;-66
2022/07/16 03:50:13;;;;;;;;;1.00;1.00;;;;;18.26;63.13;102191.72;5000937;28;8945;-67
2022/07/16 03:52:43;;;;;;;;;1.00;1.00;;;;;18.23;62.96;102194.00;4991832;28;8839;-66
2022/07/16 03:55:10;;;;;;;;;1.00;1.00;;;;;18.25;62.72;102192.75;4991295;28;8964;-65
2022/07/16 03:57:37;;;;;;;;;2.50;1.00;;;;;18.23;62.53;102192.16;4991383;28;8860;-67
2022/07/16 04:00:05;;;;;;;;;0.25;0.00;;;;;18.20;62.30;102199.91;4991253;28;9648;-66
2022/07/16 04:02:31;;;;;;;;;0.75;0.75;;;;;18.20;62.29;102202.63;4990566;28;8926;-66
2022/07/16 04:04:58;;;;;;;;;0.00;0.00;;;;;18.19;62.33;102206.41;4990829;28;8958;-67
2022/07/16 04:07:25;;;;;;;;;0.00;0.00;;;;;18.10;62.29;102203.06;4990865;28;8840;-66
2022/07/16 04:09:52;;;;;;;;;1.00;1.00;;;;;18.09;62.32;102209.56;4989977;28;8860;-67
2022/07/16 04:12:21;;;;;;;;;1.00;1.00;;;;;18.11;62.43;102207.47;4971646;28;8843;-67
2022/07/16 04:14:48;;;;;;;;;1.00;1.00;;;;;18.06;62.09;102209.97;4971216;28;8861;-66
2022/07/16 04:17:14;;;;;;;;;2.00;2.00;;;;;17.99;62.01;102215.44;4990319;28;8844;-67
2022/07/16 04:19:41;;;;;;;;;3.00;0.00;;;;;17.95;61.89;102226.97;4969590;28;8820;-66
2022/07/16 04:22:07;;;;;;;;;1.00;0.25;;;;;17.94;61.48;102211.66;4989976;28;9615;-66
2022/07/16 04:24:34;;;;;;;;;1.25;1.00;;;;;17.86;61.58;102230.94;4990621;28;9646;-66
2022/07/16 04:27:00;;;;;;;;;1.00;1.00;;;;;17.79;61.75;102220.06;4990799;28;8825;-65
2022/07/16 04:29:27;;;;;;;;;2.50;1.75;;;;;17.76;61.61;102224.03;4990659;28;8833;-65
2022/07/16 04:31:53;;;;;;;;;1.25;1.25;;;;;17.77;61.58;102224.84;4990969;28;8856;-65
2022/07/16 04:36:49;;;;;;;;;0.75;0.75;;;;;17.78;62.00;102235.56;4950725;28;8843;-65
2022/07/16 04:39:16;;;;;;;;;1.75;0.75;;;;;17.81;61.49;102223.38;4952521;28;8812;-65
2022/07/16 04:41:43;;;;;;;;;0.00;0.00;;;;;17.85;61.68;102232.81;4952302;28;8945;-64
2022/07/16 04:44:09;;;;;;;;;0.50;0.50;;;;;17.84;61.83;102228.44;4952450;28;8843;-65
2022/07/16 04:46:35;;;;;;;;;0.00;0.00;;;;;17.89;61.78;102228.63;4951757;28;8847;-65
2022/07/16 04:49:02;;;;;;;;;1.50;1.50;;;;;17.87;61.13;102238.09;4951801;28;8855;-65
2022/07/16 04:51:28;;;;;;;;;1.00;1.00;;;;;17.88;61.47;102232.41;4950278;28;8827;-65
2022/07/16 04:53:55;;;;;;;;;1.00;1.00;;;;;17.83;61.17;102243.09;4952158;28;8953;-65
2022/07/16 04:56:21;;;;;;;;;1.00;1.00;;;;;17.76;60.96;102245.81;4952170;28;8965;-65
2022/07/16 04:58:48;;;;;;;;;0.50;0.00;;;;;17.77;61.19;102247.47;4951859;28;8939;-65
2022/07/16 05:01:15;;;;;;;;;2.00;1.75;;;;;17.77;60.73;102252.94;4952069;28;8896;-65
2022/07/16 05:03:41;;;;;;;;;1.00;1.00;;;;;17.82;60.53;102252.31;4951860;28;8871;-64
2022/07/16 05:06:07;;;;;;;;;1.00;1.00;;;;;17.82;60.53;102251.47;4950856;28;8851;-64
2022/07/16 05:08:34;;;;;;;;;1.00;1.00;;;;;17.77;60.52;102252.94;4951698;28;8835;-65
2022/07/16 05:11:06;;;;;;;;;1.75;1.25;;;;;17.67;60.71;102249.75;4951234;28;8851;-65
2022/07/16 05:13:33;;;;;;;;;1.75;1.75;;;;;17.63;60.89;102258.53;4951919;28;8966;-65
2022/07/16 05:16:01;;;;;;;;;2.25;2.00;;;;;17.69;61.00;102260.44;4951901;28;8917;-65
2022/07/16 05:18:27;;;;;;;;;0.25;0.25;;;;;17.77;61.05;102263.00;4951807;28;8831;-65
2022/07/16 05:20:54;;;;;;;;;0.50;0.25;;;;;17.82;60.51;102260.47;4951961;29;8843;-65
2022/07/16 05:23:20;;;;;;;;;5.00;1.50;;;;;17.77;59.59;102266.53;4951804;29;8819;-65
2022/07/16 05:25:47;;;;;;;;;0.00;0.00;;;;;17.73;59.61;102259.81;4951934;28;8862;-65
2022/07/16 05:28:13;;;;;;;;;1.00;1.00;;;;;17.70;59.16;102268.41;4955568;28;8831;-65
2022/07/16 05:30:40;;;;;;;;;1.25;1.00;;;;;17.65;59.00;102272.78;4955617;28;8827;-65
2022/07/16 05:33:06;;;;;;;;;2.25;1.00;;;;;17.71;58.90;102278.25;4955706;28;8954;-65
2022/07/16 05:35:33;;;;;;;;;1.25;1.25;;;;;17.74;58.91;102276.97;4955699;28;8878;-65
2022/07/16 05:37:59;;;;;;;;;0.00;0.00;;;;;17.70;58.86;102284.75;4955519;28;8839;-64
2022/07/16 05:40:26;;;;;;;;;1.00;1.00;;;;;17.85;59.25;102287.31;4955385;28;8917;-65
2022/07/16 05:42:52;;;;;;;;;0.00;0.00;;;;;18.06;58.08;102278.09;4955248;28;8961;-65
2022/07/16 05:45:18;;;;;;;;;0.50;0.50;;;;;18.31;57.75;102286.50;4955494;28;8894;-65
2022/07/16 05:47:45;;;;;;;;;0.00;0.00;;;;;18.64;56.77;102291.09;4938314;28;8848;-65
2022/07/16 05:50:12;;;;;;;;;0.00;0.00;;;;;18.85;55.60;102284.56;4953681;28;8839;-65
2022/07/16 05:52:39;;;;;;;;;0.00;0.00;;;;;19.05;54.87;102288.06;4955434;28;8862;-65
2022/07/16 05:55:06;;;;;;;;;0.25;0.00;;;;;19.14;54.35;102288.66;4955449;28;9581;-66
2022/07/16 05:57:32;;;;;;;;;0.50;0.50;;;;;19.12;53.92;102296.22;4954839;28;8920;-65
2022/07/16 05:59:59;;;;;;;;;0.25;0.25;;;;;19.20;53.98;102298.69;4955417;28;8953;-64
2022/07/16 06:02:25;;;;;;;;;0.00;0.00;;;;;19.22;53.40;102297.44;4955263;28;8841;-65
2022/07/16 06:04:52;;;;;;;;;0.00;0.00;;;;;19.26;53.08;102304.13;4953377;28;9633;-65
2022/07/16 06:07:18;;;;;;;;;0.00;0.00;;;;;19.29;53.58;102308.34;4955075;28;8859;-65
2022/07/16 06:09:45;;;;;;;;;0.00;0.00;;;;;19.31;53.17;102311.69;4955279;28;8828;-66
2022/07/16 06:12:11;;;;;;;;;0.75;0.75;;;;;19.29;52.80;102305.63;4955019;28;8871;-65
2022/07/16 06:14:38;;;;;;;;;0.00;0.00;;;;;19.39;52.71;102313.31;4953780;28;8914;-65
2022/07/16 06:17:04;;;;;;;;;0.00;0.00;;;;;19.45;52.35;102316.03;4954458;28;8897;-65
2022/07/16 06:19:31;;;;;;;;;0.00;0.00;;;;;19.43;52.10;102317.31;4954522;28;8901;-65
2022/07/16 06:21:57;;;;;;;;;0.00;0.00;;;;;19.43;52.04;102311.84;4954411;28;8874;-66
2022/07/16 06:24:24;;;;;;;;;0.50;0.00;;;;;19.41;52.02;102327.63;4954848;28;8819;-65
2022/07/16 06:26:50;;;;;;;;;1.00;1.00;;;;;19.36;51.87;102321.94;4954609;28;8851;-65
2022/07/16 06:29:17;;;;;;;;;0.00;0.00;;;;;19.23;51.90;102331.88;4955002;28;9550;-65
2022/07/16 06:31:44;;;;;;;;;1.50;0.00;;;;;19.18;52.05;102323.50;4954060;28;8843;-65
2022/07/16 06:34:12;;;;;;;;;1.50;0.75;;;;;19.17;52.01;102332.75;4937392;28;8946;-65
2022/07/16 06:36:39;;;;;;;;;0.00;0.00;;;;;19.06;51.54;102338.03;4953974;28;8846;-64
2022/07/16 06:39:05;;;;;;;;;0.00;0.00;;;;;18.99;51.60;102338.88;4954715;28;8831;-64
2022/07/16 06:41:32;;;;;;;;;0.00;0.00;;;;;18.97;51.24;102351.91;4954540;28;8919;-65
2022/07/16 06:43:58;;;;;;;;;0.50;0.00;;;;;18.95;51.75;102350.44;4953452;28;8839;-65
2022/07/16 06:46:25;;;;;;;;;1.00;0.00;;;;;18.85;51.57;102353.59;4954470;28;8843;-65
2022/07/16 06:48:52;;;;;;;;;0.25;0.00;;;;;18.74;51.47;102368.72;4960543;28;8874;-64
2022/07/16 06:51:18;;;;;;;;;0.00;0.00;;;;;18.72;51.25;102364.53;4953663;28;8843;-65
2022/07/16 06:53:45;;;;;;;;;0.00;0.00;;;;;18.62;51.23;102375.84;4953831;28;8843;-64
2022/07/16 06:56:12;;;;;;;;;1.50;1.50;;;;;18.59;51.63;102365.34;4937269;28;8863;-65
2022/07/16 06:58:38;;;;;;;;;0.00;0.00;;;;;18.69;51.69;102376.69;4953844;28;8823;-65
2022/07/16 07:01:05;;;;;;;;;0.75;0.00;;;;;18.75;51.34;102375.00;4954036;28;8851;-65
2022/07/16 07:03:32;;;;;;;;;0.00;0.00;;;;;18.76;51.14;102373.97;4951304;28;8917;-65
2022/07/16 07:05:58;;;;;;;;;1.00;0.00;;;;;18.77;51.11;102381.09;4953918;28;8886;-64
2022/07/16 07:08:25;;;;;;;;;2.00;0.25;;;;;18.80;51.57;102382.56;4953212;28;8839;-65
2022/07/16 07:10:52;;;;;;;;;0.00;0.00;;;;;18.85;51.40;102386.34;4952599;28;8925;-64
2022/07/16 07:13:19;;;;;;;;;0.00;0.00;;;;;18.90;51.24;102392.00;4954003;28;8828;-64
2022/07/16 07:15:46;;;;;;;;;0.75;0.00;;;;;18.93;50.72;102391.59;4953601;28;8835;-65
2022/07/16 07:18:12;;;;;;;;;0.00;0.00;;;;;19.00;50.84;102391.59;4953615;28;8847;-64
2022/07/16 07:20:38;;;;;;;;;0.25;0.00;;;;;18.89;50.03;102392.22;4953787;28;8847;-64
2022/07/16 07:23:05;;;;;;;;;0.00;0.00;;;;;18.85;50.19;102388.25;4952604;28;8835;-64
2022/07/16 07:25:31;;;;;;;;;0.00;0.00;;;;;18.84;50.30;102387.41;4947955;28;8823;-65
2022/07/16 07:27:58;;;;;;;;;1.00;1.00;;;;;18.90;50.16;102386.53;4951324;28;8945;-65
2022/07/16 07:30:24;;;;;;;;;0.00;0.00;;;;;18.88;50.06;102385.94;4953575;28;8889;-65
2022/07/16 07:32:51;;;;;;;;;0.00;0.00;;;;;18.88;50.24;102388.66;4952037;28;8851;-65
2022/07/16 07:35:17;;;;;;;;;2.00;0.25;;;;;18.95;50.24;102385.91;4953192;28;8946;-62
2022/07/16 07:37:44;;;;;;;;;1.00;0.00;;;;;18.93;49.79;102391.59;4953569;28;8893;-64
2022/07/16 07:40:11;;;;;;;;;0.00;0.00;;;;;18.93;49.69;102388.84;4953458;28;8997;-64
2022/07/16 07:42:37;;;;;;;;;0.00;0.00;;;;;18.94;49.50;102397.88;4952863;28;8835;-65
2022/07/16 07:45:05;;;;;;;;;0.00;0.00;;;;;18.97;49.66;102383.81;4952833;28;8828;-64
2022/07/16 07:47:31;;;;;;;;;0.00;0.00;;;;;19.00;49.29;102386.13;4952640;28;8839;-63
2022/07/16 07:49:58;;;;;;;;;0.00;0.00;;;;;19.00;49.83;102397.03;4952406;28;8839;-64
2022/07/16 07:52:25;;;;;;;;;0.00;0.00;;;;;19.06;49.67;102393.44;4953066;28;8819;-65
2022/07/16 07:54:51;;;;;;;;;0.00;0.00;;;;;19.07;49.92;102394.28;4935596;28;8854;-64
2022/07/16 07:57:18;;;;;;;;;0.00;0.00;;;;;19.11;49.73;102393.63;4951639;28;8937;-64
2022/07/16 07:59:44;;;;;;;;;0.00;0.00;;;;;19.18;49.11;102410.00;4951958;28;8839;-63
2022/07/16 08:02:11;;;;;;;;;0.25;0.00;;;;;19.11;48.52;102401.00;4953014;28;8823;-64
2022/07/16 08:04:37;;;;;;;;;0.25;0.25;;;;;19.08;48.76;102410.47;4952583;28;8835;-64
2022/07/16 08:07:04;;;;;;;;;0.25;0.25;;;;;19.08;47.95;102405.00;4952893;28;8874;-65
2022/07/16 08:09:31;;;;;;;;;0.75;0.00;;;;;19.13;47.12;102409.81;4952406;28;8823;-65
2022/07/16 08:11:57;;;;;;;;;0.00;0.00;;;;;19.15;47.21;102414.00;4951298;28;8847;-64
2022/07/16 08:14:24;;;;;;;;;0.00;0.00;;;;;19.23;47.44;102416.50;4947542;28;8847;-64
2022/07/16 08:16:55;;;;;;;;;2.00;1.00;;;;;19.20;47.28;102421.53;4952307;28;8815;-65
2022/07/16 08:19:23;;;;;;;;;0.00;0.00;;;;;19.16;47.82;102423.88;4952434;28;9605;-64
2022/07/16 08:21:50;;;;;;;;;0.00;0.00;;;;;19.17;47.35;102413.81;4951190;28;8855;-64
2022/07/16 08:27:02;;;;;;;;;1.75;0.00;;;;;19.18;46.12;102429.97;4948074;28;8857;-64
2022/07/16 08:29:29;;;;;;;;;0.25;0.00;;;;;19.20;46.21;102436.06;4947497;28;8899;-64
2022/07/16 08:31:55;;;;;;;;;0.00;0.00;;;;;19.27;46.21;102434.13;4929256;28;8894;-64
2022/07/16 08:34:25;;;;;;;;;0.00;0.00;;;;;19.33;46.05;102439.81;4952190;28;8827;-64
2022/07/16 08:36:52;;;;;;;;;0.00;0.00;;;;;19.32;46.29;102438.13;4956243;28;9511;-64
2022/07/16 08:39:19;;;;;;;;;0.25;0.00;;;;;19.32;46.52;102441.69;4949168;28;8890;-65
2022/07/16 08:41:46;;;;;;;;;1.00;1.00;;;;;19.36;46.49;102444.81;4951411;28;8918;-64
2022/07/16 08:44:13;;;;;;;;;0.00;0.00;;;;;19.46;46.95;102447.97;4951944;28;8851;-64
2022/07/16 08:46:41;;;;;;;;;1.00;0.00;;;;;19.50;46.44;102458.25;4934841;28;8867;-64
2022/07/16 08:49:08;;;;;;;;;0.00;0.00;;;;;19.53;46.39;102459.72;4952219;28;8815;-64
2022/07/16 08:51:37;;;;;;;;;0.00;0.00;;;;;19.53;45.40;102457.00;4949773;28;8906;-66
2022/07/16 08:54:09;;;;;;;;;0.25;0.00;;;;;19.47;45.40;102457.84;4952130;28;8905;-66
2022/07/16 08:56:35;;;;;;;;;0.00;0.00;;;;;19.44;46.06;102458.25;4951325;28;9628;-66
2022/07/16 08:59:03;;;;;;;;;0.00;0.00;;;;;19.42;46.12;102465.84;4952087;28;9625;-66
2022/07/16 09:01:30;;;;;;;;;2.00;0.50;;;;;19.43;45.26;102453.84;4951772;28;9542;-65
2022/07/16 09:03:57;;;;;;;;;0.00;0.00;;;;;19.39;45.30;102466.25;4934681;28;8843;-65
2022/07/16 09:06:24;;;;;;;;;0.00;0.00;;;;;19.30;45.07;102467.53;4949310;28;8831;-65
2022/07/16 09:08:53;;;;;;;;;0.00;0.00;;;;;19.29;45.25;102466.72;4946180;28;8890;-65
2022/07/16 09:11:21;;;;;;;;;0.00;0.00;;;;;19.30;45.73;102462.91;4951821;28;8839;-65
2022/07/16 09:14:11;;;;;;;;;0.00;0.00;;;;;19.42;45.40;102472.13;4951460;28;8835;-65
2022/07/16 09:16:41;;;;;;;;;0.00;0.00;;;;;19.50;45.19;102480.09;4950747;28;8839;-66
2022/07/16 09:19:12;;;;;;;;;0.00;0.00;;;;;19.57;45.37;102471.03;4951736;28;8835;-66
2022/07/16 09:22:05;;;;;;;;;0.00;0.00;;;;;19.57;44.89;102477.34;4947023;29;8885;-66
2022/07/16 09:24:35;;;;;;;;;0.00;0.00;;;;;19.62;44.68;102487.66;4936930;28;8835;-66
2022/07/16 09:27:07;;;;;;;;;0.00;0.00;;;;;19.70;45.51;102480.06;4950480;29;9010;-65
2022/07/16 09:29:42;;;;;;;;;0.50;0.00;;;;;19.84;44.31;102488.22;4948964;29;8839;-65
2022/07/16 09:32:08;;;;;;;;;0.00;0.00;;;;;19.95;44.50;102485.66;4945997;29;8835;-65
2022/07/16 09:34:35;;;;;;;;;0.00;0.00;;;;;20.04;43.70;102502.63;4947924;28;9534;-65
2022/07/16 09:37:04;;;;;;;;;0.00;0.00;;;;;19.96;44.35;102501.00;4951648;29;8843;-65
2022/07/16 09:39:32;;;;;;;;;0.00;0.00;;;;;20.01;43.51;102503.06;4951839;29;8950;-65
2022/07/16 09:42:00;;;;;;;;;0.00;0.00;;;;;20.14;43.61;102499.47;4947262;29;8853;-65
2022/07/16 09:44:33;;;;;;;;;1.75;0.00;;;;;20.22;43.05;102505.50;4946237;29;8835;-65
2022/07/16 09:47:12;;;;;;;;;0.00;0.00;;;;;20.28;43.57;102490.13;4944885;29;8917;-66
2022/07/16 09:49:49;;;;;;;;;0.00;0.00;;;;;20.27;43.84;102504.84;4948403;29;9557;-65
2022/07/16 09:52:30;;;;;;;;;1.00;1.00;;;;;20.29;43.56;102502.72;4941236;29;8835;-65
2022/07/16 09:54:57;;;;;;;;;0.00;0.00;;;;;20.18;43.30;102504.28;4951622;28;8847;-64
2022/07/16 09:57:26;;;;;;;;;0.00;0.00;;;;;20.18;44.04;102509.75;4949020;29;8847;-64
2022/07/16 09:59:55;;;;;;;;;0.25;0.25;;;;;20.21;43.51;102512.03;4943143;29;9605;-64
2022/07/16 10:02:37;;;;;;;;;0.00;0.00;;;;;20.33;43.89;102512.16;4951422;29;8857;-64
2022/07/16 10:05:04;;;;;;;;;0.50;0.50;;;;;20.38;43.93;102508.81;4944375;29;8876;-65
2022/07/16 10:07:32;;;;;;;;;1.00;0.00;;;;;20.40;43.48;102517.63;4949236;29;8846;-65
2022/07/16 10:09:59;;;;;;;;;0.00;0.00;;;;;20.30;43.40;102523.56;4951535;29;9617;-65
2022/07/16 10:12:29;;;;;;;;;0.00;0.00;;;;;20.25;43.44;102523.38;4951120;28;8842;-64
2022/07/16 10:14:57;;;;;;;;;0.00;0.00;;;;;20.12;43.50;102518.81;4946666;28;9542;-65
2022/07/16 10:17:39;;;;;;;;;0.25;0.00;;;;;20.19;43.64;102525.09;4953646;28;8859;-64
2022/07/16 10:20:12;;;;;;;;;0.00;0.00;;;;;20.17;43.05;102516.25;4949626;28;8977;-65
2022/07/16 10:22:49;;;;;;;;;2.50;0.00;;;;;20.21;42.28;102517.50;4953225;28;8847;-65
2022/07/16 10:25:22;;;;;;;;;1.00;1.00;;;;;20.24;42.15;102528.00;4954303;28;9534;-64
2022/07/16 10:27:51;;;;;;;;;0.00;0.00;;;;;20.23;42.66;102520.03;4954591;28;8863;-65
2022/07/16 10:30:25;;;;;;;;;1.00;1.00;;;;;20.40;43.11;102528.56;4948869;29;8845;-64
2022/07/16 10:33:10;;;;;;;;;0.00;0.00;;;;;20.46;43.46;102523.06;4950875;28;8922;-64
2022/07/16 10:35:50;;;;;;;;;1.00;0.00;;;;;20.62;43.25;102527.22;4990750;22;8907;-66
2022/07/16 10:38:26;;;;;;;;;0.00;0.00;;;;;20.43;42.87;102534.44;5032569;28;8828;-66
2022/07/16 10:41:13;;;;;;;;;1.00;1.00;;;;;20.34;43.73;102529.44;5028904;28;8809;-65
2022/07/16 10:43:40;;;;;;;;;0.00;0.00;;;;;20.30;43.88;102530.94;5031058;28;8871;-65
2022/07/16 10:46:09;;;;;;;;;0.00;0.00;;;;;20.33;43.93;102534.06;5030483;28;8816;-66
2022/07/16 10:48:38;;;;;;;;;0.00;0.00;;;;;20.21;43.33;102539.38;5025191;28;8841;-66
2022/07/16 10:51:15;;;;;;;;;0.00;0.00;;;;;20.20;42.84;102542.31;5027648;28;8938;-65
2022/07/16 10:54:03;;;;;;;;;0.00;0.00;;;;;20.36;42.98;102543.72;5030628;28;8860;-66
2022/07/16 10:56:46;;;;;;;;;0.00;0.00;;;;;20.41;43.09;102542.00;5019480;28;8870;-67
2022/07/16 10:59:16;;;;;;;;;1.00;1.00;;;;;20.47;43.30;102552.09;5031775;28;8817;-66
2022/07/16 11:01:46;;;;;;;;;0.00;0.00;;;;;20.44;42.44;102546.22;5030357;28;8958;-67
2022/07/16 11:04:13;;;;;;;;;0.00;0.00;;;;;20.41;42.19;102547.47;5027747;28;9518;-66
2022/07/16 11:06:47;;;;;;;;;0.75;0.75;;;;;20.51;41.18;102541.59;5031019;28;8977;-67
2022/07/16 11:09:14;;;;;;;;;0.00;0.00;;;;;20.61;41.06;102539.19;5019427;28;9510;-66
2022/07/16 11:11:42;;;;;;;;;0.25;0.00;;;;;20.65;40.86;102550.53;5030738;28;8855;-65
2022/07/16 11:14:09;;;;;;;;;0.00;0.00;;;;;20.71;41.04;102552.41;5027708;28;8951;-67
2022/07/16 11:16:46;;;;;;;;;1.00;0.00;;;;;20.81;40.35;102546.44;5029771;28;8828;-66
2022/07/16 11:19:13;;;;;;;;;1.00;0.00;;;;;20.89;40.65;102552.47;5031026;28;8832;-65
2022/07/16 11:21:54;;;;;;;;;0.00;0.00;;;;;21.04;40.16;102552.16;5031785;28;8852;-66
2022/07/16 11:24:21;;;;;;;;;0.25;0.00;;;;;21.13;40.01;102556.31;5030545;28;8860;-66
2022/07/16 11:26:48;;;;;;;;;0.00;0.00;;;;;21.14;39.50;102557.13;5028060;28;8919;-66
2022/07/16 11:29:14;;;;;;;;;0.00;0.00;;;;;21.23;39.44;102556.66;5026465;28;8840;-66
2022/07/16 11:31:41;;;;;;;;;0.00;0.00;;;;;21.23;39.17;102561.31;5030419;28;9523;-66
2022/07/16 11:34:10;;;;;;;;;0.00;0.00;;;;;21.22;38.94;102557.69;5030907;28;8816;-66
2022/07/16 11:36:42;;;;;;;;;0.00;0.00;;;;;21.20;39.26;102568.06;5031469;28;8828;-67
2022/07/16 11:39:10;;;;;;;;;1.75;0.00;;;;;21.16;38.82;102577.78;5030013;28;8935;-66
2022/07/16 11:41:39;;;;;;;;;0.50;0.00;;;;;21.12;38.80;102571.06;5017108;28;8841;-66
2022/07/16 11:44:13;;;;;;;;;0.00;0.00;;;;;21.17;38.57;102571.22;5011959;28;8815;-66